Portland, OR (97205)

2:55 PM PDT on August 04, 2015 (GMT -0700)
APRSWXNET | | Change Station
CLOSE
Current Station
Personal Weather Station
Location: Portland, OR
Elevation: 180 ft
Nearby Weather Stations

Elev 180 ft 45.50 °N, 122.67 °W | Updated 25 minutes ago

Clear
Clear
77 °F
Feels Like 78 °F
N
0
Wind Variable Wind from SSE
Gusts 0.0 mph

Today
High -- | Low -- °F
--% Chance of Precip.
Yesterday
High -- | Low -- °F
Precip. -- in
5:57 AM 8:34 PM
Waning Gibbous, 74% visible
Pressure 30.00 in
Visibility 10.0 miles
Clouds Few 3500 ft
Few 25000 ft
Heat Index 78 °F
Dew Point 55 °F
Humidity 46%
Rainfall in
Snow Depth Not available.
UV 9 out of 12
Pollen 5.20 out of 12
Air Quality Not available.
Flu Activity Not available.
METAR KPDX 042053Z 30007KT 10SM FEW035 FEW250 25/09 A3000 RMK AO2 SLP158 T02500089 58011 $

More Conditions Fewer Conditions

Pressure 30.00 in
Visibility 10.0 miles
Clouds Few 3500 ft
Few 25000 ft
Heat Index 78 °F
Dew Point 55 °F
Humidity 46%
Rainfall in
Snow Depth Not available.
UV 9 out of 12
Pollen 5.20 out of 12
Air Quality Not available.
Flu Activity Not available.
METAR KPDX 042053Z 30007KT 10SM FEW035 FEW250 25/09 A3000 RMK AO2 SLP158 T02500089 58011 $

More Conditions Fewer Conditions

10-Day Weather Forecast

×

Almanac

Astronomy

Aug. 04, 2015 Rise Set
Actual Time
Civil Twilight
Nautical Twilight
Astronomical Twilight
Moon
Length of Visible Light
Length of Day
Tomorrow will be .
, % of the Moon is Illuminated

Today's Extremes

State Highs State Lows

Community

WunderPhotos

Upload Photos

1,843,992 photos uploaded!

WunderBlogs® & News

Nearby

Air Quality

  Air Quality AQ Index Pollutant
Not available.

Snow Depth

Station Depth Elevation

Earthquake Activity

City Distance Mag. Time & Date
Minimum magnitude displayed is 2.5.

Coastal Water Temperatures

Place Temperature

Stations

Nearby Weather Stations

Station Location Temp. Windchill Dew Point Humidity Wind Precip. Elev Updated Type